Forside
METAR-TAF:

METAR-TAF

Lufthavne :

Marshall County Airport

Lacon, Illinois, USA

Breddekreds: 41-01-09N, længdekreds: 089-23-11W, højde: 173 m

Aktuelle vejr

Denne rapport blev lavet for 29 minutter siden, kl. 17:55 UTC
Vind 9 kt fra sydsydvest med vindstød på up til 14 kt
Temperatur 7°C
Fugtighed 39%
Tryk 1023 hPa
Sigt: 16.1 km
skyfri

METAR: KC75 221755Z AUTO 21009G14KT 10SM CLR 07/M06 A3022 RMK AO2 T00731060 10073 21029

Tid: 12:24 (18:24 UTC)


TAF: fraværende

Vejrobservationer og prognoser fra mere end 4000 lufthavne (METAR og TAF).

De gule og røde prikker repræsenterer de meteorologiske stationer.

Flyt musen over at se navnet på stationen.

Så klik over at se vejr observationer og prognoser.

At skifte det kort: Klik på de grønne knapper med et sort kors for at zoome ind; på den grønne knap med en bindestreg for at zoome ud; eller på de grønne pile for tilstødende kort.


METAR-TAF: